Time;durP1;ratioP1;P1;durP2;ratioP2;P2;SDS_P1;SDS_P2;PMS_P1;PMS_P2;Temp;Humidity;BMP_temperature;BMP_pressure;BME280_temperature;BME280_humidity;BME280_pressure;Samples;Min_cycle;Max_cycle;Signal;HPM_P1;HPM_P2
2021/01/26 00:01:47;;;;;;;27.38;17.10;;;;;;;;;;6221449;23;20024;-88
2021/01/26 00:04:14;;;;;;;26.27;16.77;;;;;;;;;;6223470;23;20032;-87
2021/01/26 00:06:41;;;;;;;31.83;18.25;;;;;;;;;;6249258;23;20024;-87
2021/01/26 00:09:10;;;;;;;29.08;17.45;;;;;;;;;;6223037;23;20032;-87
2021/01/26 00:11:38;;;;;;;32.55;17.88;;;;;;;;;;6266466;22;20016;-87
2021/01/26 00:14:07;;;;;;;38.03;19.58;;;;;;;;;;6239605;22;20032;-87
2021/01/26 00:16:33;;;;;;;32.13;18.92;;;;;;;;;;6249507;23;20333;-87
2021/01/26 00:19:08;;;;;;;28.67;17.42;;;;;;;;;;6247741;23;20442;-87
2021/01/26 00:21:34;;;;;;;30.45;19.00;;;;;;;;;;6222861;23;20047;-87
2021/01/26 00:24:10;;;;;;;26.90;17.42;;;;;;;;;;6224721;23;20099;-87
2021/01/26 00:26:36;;;;;;;35.72;20.55;;;;;;;;;;6232033;23;20047;-87
2021/01/26 00:29:11;;;;;;;31.15;20.35;;;;;;;;;;6245593;23;20028;-87
2021/01/26 00:31:39;;;;;;;30.63;20.13;;;;;;;;;;6221310;23;20024;-87
2021/01/26 00:34:07;;;;;;;33.75;21.63;;;;;;;;;;6222018;23;20040;-87
2021/01/26 00:36:47;;;;;;;37.88;21.77;;;;;;;;;;6222846;23;20028;-88
2021/01/26 00:39:13;;;;;;;34.40;20.70;;;;;;;;;;6221859;23;20028;-88
2021/01/26 00:41:46;;;;;;;40.10;23.50;;;;;;;;;;6226000;23;20039;-87
2021/01/26 00:44:13;;;;;;;38.35;23.70;;;;;;;;;;6222919;23;20035;-87
2021/01/26 00:46:46;;;;;;;39.95;22.52;;;;;;;;;;6222941;23;20142;-86
2021/01/26 00:49:16;;;;;;;38.90;23.42;;;;;;;;;;6234859;23;20032;-87
2021/01/26 00:51:48;;;;;;;35.45;22.30;;;;;;;;;;6268272;22;20011;-87
2021/01/26 00:54:14;;;;;;;36.85;21.63;;;;;;;;;;6264102;22;20048;-87
2021/01/26 00:56:40;;;;;;;37.10;21.67;;;;;;;;;;6224924;23;20024;-87
2021/01/26 00:59:06;;;;;;;38.95;23.52;;;;;;;;;;6252749;23;20024;-86
2021/01/26 01:01:39;;;;;;;38.33;21.92;;;;;;;;;;6258478;23;20165;-87
2021/01/26 01:04:06;;;;;;;37.60;23.55;;;;;;;;;;6240117;22;20036;-87
2021/01/26 01:06:32;;;;;;;34.78;22.83;;;;;;;;;;6231911;23;20080;-87
2021/01/26 01:09:14;;;;;;;39.58;25.27;;;;;;;;;;6225047;23;20100;-87
2021/01/26 01:11:41;;;;;;;43.35;25.92;;;;;;;;;;6251053;23;20390;-87
2021/01/26 01:14:07;;;;;;;40.88;24.60;;;;;;;;;;6251223;23;20331;-87
2021/01/26 01:16:34;;;;;;;40.28;25.65;;;;;;;;;;6224900;23;20028;-86
2021/01/26 01:19:00;;;;;;;41.25;25.30;;;;;;;;;;6225497;23;20576;-87
2021/01/26 01:21:27;;;;;;;41.28;24.90;;;;;;;;;;6227600;23;20051;-87
2021/01/26 01:27:27;;;;;;;46.67;25.17;;;;;;;;;;6252673;23;20028;-87
2021/01/26 01:29:55;;;;;;;43.47;25.50;;;;;;;;;;6252680;23;20032;-87
2021/01/26 01:32:22;;;;;;;41.15;25.40;;;;;;;;;;6226160;23;20055;-87
2021/01/26 01:34:51;;;;;;;44.50;26.08;;;;;;;;;;6228760;23;20024;-88
2021/01/26 01:37:18;;;;;;;46.20;26.80;;;;;;;;;;6227154;23;20353;-87
2021/01/26 01:39:47;;;;;;;40.45;25.52;;;;;;;;;;6228261;23;20047;-86
2021/01/26 01:42:18;;;;;;;44.47;26.95;;;;;;;;;;6225948;23;20024;-88
2021/01/26 01:44:44;;;;;;;44.38;26.23;;;;;;;;;;6252137;23;20043;-86
2021/01/26 01:47:17;;;;;;;49.00;27.35;;;;;;;;;;6224643;23;20024;-86
2021/01/26 01:49:57;;;;;;;40.10;25.98;;;;;;;;;;6251068;23;20109;-87
2021/01/26 01:52:31;;;;;;;46.55;26.73;;;;;;;;;;6251103;23;20060;-87
2021/01/26 01:55:11;;;;;;;44.30;26.75;;;;;;;;;;6249491;23;20034;-86
2021/01/26 01:57:43;;;;;;;43.42;25.83;;;;;;;;;;6250212;23;20040;-87
2021/01/26 02:00:12;;;;;;;49.80;27.30;;;;;;;;;;6225700;23;20386;-87
2021/01/26 02:02:42;;;;;;;43.75;27.65;;;;;;;;;;6250377;23;20071;-87
2021/01/26 02:05:09;;;;;;;47.67;27.35;;;;;;;;;;6250094;23;20026;-86
2021/01/26 02:07:36;;;;;;;45.38;27.60;;;;;;;;;;6251341;23;20024;-86
2021/01/26 02:10:07;;;;;;;44.72;25.65;;;;;;;;;;6228247;23;20043;-86
2021/01/26 02:12:44;;;;;;;48.38;28.83;;;;;;;;;;6230496;23;20028;-85
2021/01/26 02:15:11;;;;;;;49.58;28.85;;;;;;;;;;6230471;23;20024;-84
2021/01/26 02:17:37;;;;;;;47.72;27.67;;;;;;;;;;6256098;23;20039;-83
2021/01/26 02:20:22;;;;;;;52.53;30.38;;;;;;;;;;6254862;23;20024;-83
2021/01/26 02:22:51;;;;;;;51.60;30.55;;;;;;;;;;6253851;23;20098;-83
2021/01/26 02:25:40;;;;;;;50.25;30.60;;;;;;;;;;6254410;23;20032;-84
2021/01/26 02:28:08;;;;;;;50.90;30.58;;;;;;;;;;6254121;23;20032;-83
2021/01/26 02:30:37;;;;;;;56.30;32.30;;;;;;;;;;6226865;23;20079;-83
2021/01/26 02:33:07;;;;;;;55.22;31.23;;;;;;;;;;6253756;23;20024;-84
2021/01/26 02:35:50;;;;;;;57.67;32.90;;;;;;;;;;6254167;23;20051;-84
2021/01/26 02:38:26;;;;;;;59.78;33.25;;;;;;;;;;6253461;23;20024;-83
2021/01/26 02:41:13;;;;;;;58.78;32.63;;;;;;;;;;6252728;23;20078;-84
2021/01/26 02:44:09;;;;;;;56.90;31.35;;;;;;;;;;6252195;23;20055;-84
2021/01/26 02:46:44;;;;;;;58.85;33.00;;;;;;;;;;6224335;23;20027;-84
2021/01/26 02:49:23;;;;;;;59.50;34.70;;;;;;;;;;6223851;23;20024;-84
2021/01/26 02:52:02;;;;;;;59.55;34.28;;;;;;;;;;6224283;23;20048;-85
2021/01/26 02:54:36;;;;;;;63.00;34.88;;;;;;;;;;6225573;23;20039;-85
2021/01/26 02:57:04;;;;;;;;;;;;;;;;;;6225788;23;20028;-84
2021/01/26 02:59:54;;;;;;;57.15;33.30;;;;;;;;;;6253845;23;19919;-85
2021/01/26 03:02:38;;;;;;;62.90;35.72;;;;;;;;;;6258542;22;20074;-84
2021/01/26 03:05:07;;;;;;;69.30;37.08;;;;;;;;;;6263649;22;20036;-84
2021/01/26 03:07:44;;;;;;;70.53;39.50;;;;;;;;;;6248198;23;20028;-85
2021/01/26 03:10:15;;;;;;;68.55;38.53;;;;;;;;;;6250487;23;20031;-85
2021/01/26 03:12:43;;;;;;;68.10;38.17;;;;;;;;;;6223353;23;20031;-84
2021/01/26 03:15:12;;;;;;;79.32;40.08;;;;;;;;;;6224081;23;20024;-84
2021/01/26 03:17:46;;;;;;;65.45;37.15;;;;;;;;;;6250214;23;20406;-85
2021/01/26 03:20:19;;;;;;;67.72;38.00;;;;;;;;;;6225460;23;20142;-85
2021/01/26 03:22:48;;;;;;;65.53;37.53;;;;;;;;;;6225583;23;20024;-85
2021/01/26 03:25:17;;;;;;;69.10;37.90;;;;;;;;;;6250263;23;20082;-85
2021/01/26 03:27:45;;;;;;;64.70;36.67;;;;;;;;;;6222885;23;20164;-85
2021/01/26 03:30:14;;;;;;;66.40;37.40;;;;;;;;;;6249395;23;20050;-85
2021/01/26 03:32:44;;;;;;;63.05;37.13;;;;;;;;;;6225270;23;20374;-85
2021/01/26 03:35:11;;;;;;;59.33;36.90;;;;;;;;;;6252723;23;20032;-85
2021/01/26 03:37:38;;;;;;;65.05;38.50;;;;;;;;;;6253571;23;20020;-85
2021/01/26 03:40:05;;;;;;;75.97;37.65;;;;;;;;;;6252211;23;20035;-85
2021/01/26 03:42:32;;;;;;;70.88;40.13;;;;;;;;;;6224707;23;20379;-84
2021/01/26 03:44:58;;;;;;;71.88;40.35;;;;;;;;;;6225584;23;20063;-84
2021/01/26 03:47:30;;;;;;;72.95;39.25;;;;;;;;;;6226564;23;20032;-86
2021/01/26 03:50:17;;;;;;;70.82;40.22;;;;;;;;;;6249466;23;20024;-85
2021/01/26 03:53:03;;;;;;;68.25;38.65;;;;;;;;;;6224933;23;20028;-86
2021/01/26 03:55:30;;;;;;;73.78;42.20;;;;;;;;;;6223244;23;20024;-86
2021/01/26 03:58:09;;;;;;;71.22;40.95;;;;;;;;;;6224986;23;20024;-86
2021/01/26 04:00:37;;;;;;;72.93;40.08;;;;;;;;;;6252142;23;20387;-85
2021/01/26 04:03:22;;;;;;;70.65;41.83;;;;;;;;;;6252605;23;20052;-86
2021/01/26 04:05:52;;;;;;;75.10;40.70;;;;;;;;;;6250655;23;20024;-85
2021/01/26 04:08:26;;;;;;;67.00;39.42;;;;;;;;;;6238930;23;20019;-86
2021/01/26 04:11:01;;;;;;;74.88;41.45;;;;;;;;;;6269470;23;20023;-86
2021/01/26 04:13:54;;;;;;;69.95;40.45;;;;;;;;;;6246469;22;20022;-86
2021/01/26 04:16:22;;;;;;;79.15;43.28;;;;;;;;;;6243599;22;20012;-87
2021/01/26 04:18:50;;;;;;;73.90;39.90;;;;;;;;;;6232808;23;20051;-85
2021/01/26 04:21:16;;;;;;;72.85;41.10;;;;;;;;;;6255955;23;20028;-85
2021/01/26 04:23:53;;;;;;;81.13;44.38;;;;;;;;;;6254100;23;20076;-86
2021/01/26 04:26:24;;;;;;;80.25;44.40;;;;;;;;;;6244246;22;20084;-88
2021/01/26 04:28:50;;;;;;;75.43;41.92;;;;;;;;;;6243527;22;20035;-86
2021/01/26 04:31:23;;;;;;;79.97;43.00;;;;;;;;;;6235262;23;20030;-85
2021/01/26 04:33:50;;;;;;;76.20;41.90;;;;;;;;;;6255770;23;20024;-86
2021/01/26 04:36:19;;;;;;;81.20;43.45;;;;;;;;;;6227896;23;20173;-86
2021/01/26 04:38:45;;;;;;;83.95;44.88;;;;;;;;;;6239868;22;20046;-86
2021/01/26 04:41:18;;;;;;;81.90;45.72;;;;;;;;;;6269664;22;20038;-87
2021/01/26 04:43:47;;;;;;;80.95;43.20;;;;;;;;;;6229382;23;20043;-86
2021/01/26 04:46:36;;;;;;;82.65;44.75;;;;;;;;;;6231366;23;20059;-86
2021/01/26 04:49:21;;;;;;;88.07;46.38;;;;;;;;;;6228133;23;20031;-86
2021/01/26 04:51:56;;;;;;;78.93;43.13;;;;;;;;;;6227097;23;20078;-86
2021/01/26 04:54:30;;;;;;;78.07;42.72;;;;;;;;;;6252406;23;20294;-86
2021/01/26 04:57:02;;;;;;;81.63;44.42;;;;;;;;;;6254541;23;20099;-86
2021/01/26 04:59:34;;;;;;;87.45;45.92;;;;;;;;;;6225196;23;20024;-87
2021/01/26 05:02:07;;;;;;;82.97;46.33;;;;;;;;;;6223858;23;20034;-87
2021/01/26 05:05:12;;;;;;;86.45;44.17;;;;;;;;;;6251328;23;20027;-87
2021/01/26 06:42:06;;;;;;;;;;;;;;;;;;;;;
2021/01/26 06:45:22;;;;;;;;;;;;;;;;;;;;;
2021/01/26 06:48:32;;;;;;;;;;;;;;;;;;;;;
2021/01/26 06:51:31;;;;;;;85.13;45.80;;;;;;;;;;6042997;23;20176;-89
2021/01/26 07:00:55;;;;;;;;;;;;;;;;;;;;;
2021/01/26 07:07:17;;;;;;;86.70;44.42;;;;;;;;;;6283704;22;20067;-88
2021/01/26 07:14:08;;;;;;;82.15;42.85;;;;;;;;;;6193257;23;20016;-89
2021/01/26 07:31:19;;;;;;;;;;;;;;;;;;;;;
2021/01/26 07:41:30;;;;;;;79.40;40.83;;;;;;;;;;6157752;23;20017;-89
2021/01/26 07:44:57;;;;;;;77.75;42.17;;;;;;;;;;6161065;23;20029;-89
2021/01/26 07:47:44;;;;;;;77.45;41.60;;;;;;;;;;6114848;23;20307;-89
2021/01/26 07:50:49;;;;;;;78.72;41.60;;;;;;;;;;6138353;23;20044;-90
2021/01/26 07:53:57;;;;;;;;;;;;;;;;;;;;;
2021/01/26 07:56:40;;;;;;;;;;;;;;;;;;6160003;23;20033;-90
2021/01/26 07:59:40;;;;;;;71.95;41.63;;;;;;;;;;6139457;23;19923;-89
2021/01/26 08:02:27;;;;;;;77.07;41.83;;;;;;;;;;6147112;23;20032;-89
2021/01/26 08:05:39;;;;;;;77.22;42.00;;;;;;;;;;6168935;23;20028;-89
2021/01/26 08:09:05;;;;;;;80.03;42.25;;;;;;;;;;6161578;23;20196;-88
2021/01/26 08:12:13;;;;;;;;;;;;;;;;;;;;;
2021/01/26 08:16:00;;;;;;;;;;;;;;;;;;;;;
2021/01/26 08:22:20;;;;;;;79.05;42.63;;;;;;;;;;6263870;23;20047;-91
2021/01/26 08:28:33;;;;;;;86.10;42.35;;;;;;;;;;6258613;23;20051;-91
2021/01/26 08:31:34;;;;;;;77.38;42.15;;;;;;;;;;6233724;23;20055;-90
2021/01/26 08:34:35;;;;;;;80.50;44.35;;;;;;;;;;6238632;23;20012;-91
2021/01/26 08:37:53;;;;;;;69.85;38.13;;;;;;;;;;6263276;23;20076;-91
2021/01/26 08:40:38;;;;;;;70.20;37.10;;;;;;;;;;6240996;23;20028;-91
2021/01/26 08:43:42;;;;;;;70.55;37.55;;;;;;;;;;6244949;22;20035;-91
2021/01/26 08:46:31;;;;;;;79.30;38.67;;;;;;;;;;6263857;22;20024;-90
2021/01/26 08:49:30;;;;;;;63.13;36.10;;;;;;;;;;6235144;23;20035;-91
2021/01/26 08:52:33;;;;;;;62.90;34.95;;;;;;;;;;6210221;23;20024;-90
2021/01/26 08:55:10;;;;;;;63.72;35.55;;;;;;;;;;6258075;23;20054;-91
2021/01/26 08:57:49;;;;;;;53.08;31.85;;;;;;;;;;6239046;23;20087;-91
2021/01/26 09:00:36;;;;;;;42.47;27.83;;;;;;;;;;6263010;23;20042;-91
2021/01/26 09:03:24;;;;;;;35.10;23.27;;;;;;;;;;6228384;23;20032;-90
2021/01/26 09:06:29;;;;;;;;;;;;;;;;;;;;;
2021/01/26 09:08:57;;;;;;;32.60;22.45;;;;;;;;;;6215472;23;20028;-89
2021/01/26 09:11:40;;;;;;;31.23;22.23;;;;;;;;;;6226610;23;20519;-89
2021/01/26 09:14:28;;;;;;;28.17;21.48;;;;;;;;;;6228132;23;20024;-89
2021/01/26 09:17:22;;;;;;;29.02;20.90;;;;;;;;;;6226048;23;20035;-89
2021/01/26 09:19:58;;;;;;;28.17;21.38;;;;;;;;;;6252365;22;20028;-89
2021/01/26 09:22:32;;;;;;;32.40;21.40;;;;;;;;;;6282550;22;20155;-89
2021/01/26 09:25:01;;;;;;;31.02;21.02;;;;;;;;;;6281153;22;20093;-88
2021/01/26 09:27:31;;;;;;;27.45;21.52;;;;;;;;;;6279648;22;20034;-88
2021/01/26 09:30:19;;;;;;;35.42;22.40;;;;;;;;;;6282295;22;20275;-88
2021/01/26 09:32:54;;;;;;;33.97;22.83;;;;;;;;;;6282937;22;20087;-87
2021/01/26 09:35:25;;;;;;;;;;;;;;;;;;6283964;22;20027;-87
2021/01/26 09:38:05;;;;;;;30.52;21.30;;;;;;;;;;6280097;22;20381;-86
2021/01/26 09:40:33;;;;;;;29.27;20.38;;;;;;;;;;6282049;22;20024;-87
2021/01/26 09:43:11;;;;;;;32.75;21.98;;;;;;;;;;6279444;22;20055;-86
2021/01/26 09:45:41;;;;;;;28.63;21.92;;;;;;;;;;6277538;22;20075;-86
2021/01/26 09:48:12;;;;;;;27.88;21.70;;;;;;;;;;6277867;22;20027;-85
2021/01/26 09:50:38;;;;;;;41.35;24.65;;;;;;;;;;6276911;22;20028;-87
2021/01/26 09:53:06;;;;;;;30.70;23.90;;;;;;;;;;6277069;22;20020;-87
2021/01/26 09:55:33;;;;;;;31.80;24.27;;;;;;;;;;6277233;22;20038;-87
2021/01/26 09:58:00;;;;;;;35.97;26.50;;;;;;;;;;6282965;22;20097;-87
2021/01/26 10:00:27;;;;;;;31.63;24.30;;;;;;;;;;6277485;22;20023;-86
2021/01/26 10:02:54;;;;;;;33.70;24.48;;;;;;;;;;6287662;22;20050;-88
2021/01/26 10:05:25;;;;;;;35.67;26.65;;;;;;;;;;6291258;22;20107;-88
2021/01/26 10:08:11;;;;;;;35.03;25.42;;;;;;;;;;6291835;22;20053;-87
2021/01/26 10:10:38;;;;;;;35.75;24.48;;;;;;;;;;6291409;22;20016;-87
2021/01/26 10:13:23;;;;;;;33.65;25.55;;;;;;;;;;6284056;22;20074;-87
2021/01/26 10:15:54;;;;;;;30.85;23.45;;;;;;;;;;6281444;22;20257;-87
2021/01/26 10:18:21;;;;;;;27.00;20.98;;;;;;;;;;6278545;22;20044;-87
2021/01/26 10:20:49;;;;;;;31.85;22.52;;;;;;;;;;6281694;22;20035;-86
2021/01/26 10:23:16;;;;;;;28.80;19.75;;;;;;;;;;6279349;22;20051;-86
2021/01/26 10:25:44;;;;;;;26.77;18.88;;;;;;;;;;6278250;22;20028;-86
2021/01/26 10:28:25;;;;;;;26.65;19.73;;;;;;;;;;6277529;22;20031;-86
2021/01/26 10:31:01;;;;;;;25.10;18.15;;;;;;;;;;6257624;22;20215;-86
2021/01/26 10:33:32;;;;;;;22.15;18.00;;;;;;;;;;6276900;22;20086;-86
2021/01/26 10:36:28;;;;;;;27.60;19.48;;;;;;;;;;6277831;22;20074;-84
2021/01/26 10:38:58;;;;;;;24.92;19.27;;;;;;;;;;6278358;22;20028;-85
2021/01/26 10:41:29;;;;;;;24.02;18.08;;;;;;;;;;6278762;22;20024;-84
2021/01/26 10:44:00;;;;;;;26.60;19.02;;;;;;;;;;6279540;22;20054;-86
2021/01/26 10:46:32;;;;;;;31.83;19.08;;;;;;;;;;6281161;22;20027;-85
2021/01/26 10:49:16;;;;;;;28.20;18.77;;;;;;;;;;6279264;22;20112;-85
2021/01/26 10:51:43;;;;;;;24.88;18.48;;;;;;;;;;6280285;22;20102;-85
2021/01/26 10:54:09;;;;;;;24.10;16.95;;;;;;;;;;6278541;22;20024;-86
2021/01/26 10:56:35;;;;;;;24.38;17.30;;;;;;;;;;6277745;22;20034;-86
2021/01/26 10:59:05;;;;;;;23.30;16.65;;;;;;;;;;6279765;22;20027;-85
2021/01/26 11:01:37;;;;;;;22.05;15.98;;;;;;;;;;6278954;22;20303;-84
2021/01/26 11:04:07;;;;;;;20.20;15.83;;;;;;;;;;6278805;22;20081;-85
2021/01/26 11:06:34;;;;;;;17.85;14.68;;;;;;;;;;6281059;22;20460;-85
2021/01/26 11:09:01;;;;;;;20.23;15.50;;;;;;;;;;6277818;22;20047;-85
2021/01/26 11:11:28;;;;;;;22.52;16.15;;;;;;;;;;6276977;22;20020;-86
2021/01/26 11:13:57;;;;;;;20.50;14.93;;;;;;;;;;6277912;22;20023;-85
2021/01/26 11:16:24;;;;;;;20.05;14.75;;;;;;;;;;6283595;22;20023;-84
2021/01/26 11:18:51;;;;;;;16.38;13.15;;;;;;;;;;6279229;22;20027;-85
2021/01/26 11:21:21;;;;;;;21.38;15.18;;;;;;;;;;6278458;22;20028;-85
2021/01/26 11:23:47;;;;;;;18.75;14.68;;;;;;;;;;6277302;22;20168;-86
2021/01/26 11:26:23;;;;;;;18.48;14.18;;;;;;;;;;6280160;22;20024;-86
2021/01/26 11:28:49;;;;;;;;;;;;;;;;;;6282241;22;20023;-86
2021/01/26 11:31:16;;;;;;;18.58;13.82;;;;;;;;;;6283169;22;19943;-86
2021/01/26 11:33:42;;;;;;;18.60;13.63;;;;;;;;;;6286588;22;20023;-86
2021/01/26 11:36:09;;;;;;;22.95;14.60;;;;;;;;;;6293438;22;20032;-85
2021/01/26 11:38:36;;;;;;;20.05;13.50;;;;;;;;;;6290987;22;20113;-85
2021/01/26 11:41:05;;;;;;;22.23;13.63;;;;;;;;;;6286589;22;20038;-86
2021/01/26 11:43:33;;;;;;;21.10;12.90;;;;;;;;;;6275485;22;20031;-85
2021/01/26 11:46:00;;;;;;;20.65;13.00;;;;;;;;;;6275329;22;20353;-84
2021/01/26 11:48:27;;;;;;;18.10;13.05;;;;;;;;;;6285886;22;20031;-85
2021/01/26 11:50:54;;;;;;;21.63;13.60;;;;;;;;;;6291110;22;20037;-84
2021/01/26 11:53:21;;;;;;;18.30;13.23;;;;;;;;;;6279478;22;20045;-85
2021/01/26 11:55:48;;;;;;;20.67;11.55;;;;;;;;;;6276115;22;20050;-84
2021/01/26 11:58:21;;;;;;;17.58;12.02;;;;;;;;;;6278595;22;20235;-84
2021/01/26 12:00:47;;;;;;;18.58;12.05;;;;;;;;;;6277907;22;20055;-85
2021/01/26 12:03:13;;;;;;;20.33;12.30;;;;;;;;;;6278790;22;20023;-86
2021/01/26 12:05:41;;;;;;;21.10;12.30;;;;;;;;;;6277432;22;20421;-85
2021/01/26 12:08:14;;;;;;;15.57;11.07;;;;;;;;;;6278736;22;20063;-87
2021/01/26 12:10:40;;;;;;;20.65;10.88;;;;;;;;;;6283001;22;20047;-88
2021/01/26 12:13:09;;;;;;;16.23;10.40;;;;;;;;;;6280749;22;20214;-87
2021/01/26 12:15:42;;;;;;;13.90;9.57;;;;;;;;;;6280386;22;20058;-87
2021/01/26 12:18:09;;;;;;;17.05;9.75;;;;;;;;;;6279948;22;20074;-88
2021/01/26 12:20:36;;;;;;;17.55;10.32;;;;;;;;;;6279036;22;20028;-89
2021/01/26 12:23:03;;;;;;;20.75;10.95;;;;;;;;;;6279433;22;20429;-87
2021/01/26 12:25:30;;;;;;;16.33;10.13;;;;;;;;;;6280544;22;20079;-88
2021/01/26 12:28:01;;;;;;;14.20;10.05;;;;;;;;;;6283839;22;20027;-89
2021/01/26 12:30:30;;;;;;;21.65;11.27;;;;;;;;;;6280777;22;20047;-87
2021/01/26 12:33:03;;;;;;;17.02;10.88;;;;;;;;;;6280973;22;20028;-87
2021/01/26 12:35:34;;;;;;;17.95;11.23;;;;;;;;;;6279709;22;20024;-88
2021/01/26 12:38:16;;;;;;;21.58;11.32;;;;;;;;;;6281969;22;20278;-88
2021/01/26 12:40:45;;;;;;;17.00;11.00;;;;;;;;;;6279221;22;20028;-88
2021/01/26 12:43:12;;;;;;;16.80;9.55;;;;;;;;;;6277659;22;20032;-88
2021/01/26 12:45:38;;;;;;;15.98;9.43;;;;;;;;;;6279470;22;20023;-88
2021/01/26 12:48:07;;;;;;;12.05;8.40;;;;;;;;;;6279113;22;20048;-88
2021/01/26 12:50:35;;;;;;;15.32;8.75;;;;;;;;;;6277266;22;20058;-89
2021/01/26 12:53:01;;;;;;;17.35;8.98;;;;;;;;;;6276251;22;20075;-88
2021/01/26 12:55:31;;;;;;;13.70;9.10;;;;;;;;;;6279834;22;20032;-87
2021/01/26 12:58:04;;;;;;;16.25;9.20;;;;;;;;;;6279131;22;20020;-87
2021/01/26 13:00:33;;;;;;;14.90;9.23;;;;;;;;;;6281445;22;20424;-88
2021/01/26 13:02:59;;;;;;;14.63;8.77;;;;;;;;;;6283587;22;20059;-88
2021/01/26 13:05:49;;;;;;;10.70;4.50;;;;;;;;;;6276192;22;20051;-91
2021/01/26 13:08:23;;;;;;;3.95;1.80;;;;;;;;;;6280185;22;20265;-86
2021/01/26 13:10:49;;;;;;;5.60;3.22;;;;;;;;;;6279553;22;20027;-84
2021/01/26 13:13:23;;;;;;;7.68;4.72;;;;;;;;;;6284227;22;20028;-85
2021/01/26 13:15:50;;;;;;;6.30;3.85;;;;;;;;;;6279822;22;20030;-85
2021/01/26 13:18:16;;;;;;;9.98;4.70;;;;;;;;;;6279493;22;20191;-86
2021/01/26 13:20:42;;;;;;;12.15;4.53;;;;;;;;;;6275509;22;20038;-86
2021/01/26 13:23:09;;;;;;;5.28;2.67;;;;;;;;;;6280339;22;20413;-85
2021/01/26 13:25:35;;;;;;;2.67;1.58;;;;;;;;;;6281887;22;20031;-87
2021/01/26 13:28:03;;;;;;;3.70;2.00;;;;;;;;;;6282606;22;20063;-86
2021/01/26 13:30:29;;;;;;;4.78;1.23;;;;;;;;;;6289334;22;20207;-87
2021/01/26 13:33:37;;;;;;;2.53;0.63;;;;;;;;;;6284701;22;20027;-89
2021/01/26 13:36:07;;;;;;;3.22;1.00;;;;;;;;;;6162506;23;20040;-89
2021/01/26 13:39:08;;;;;;;1.60;1.00;;;;;;;;;;6281819;22;20023;-90
2021/01/26 13:41:51;;;;;;;2.28;0.80;;;;;;;;;;6285458;22;20019;-91
2021/01/26 13:44:43;;;;;;;1.17;0.90;;;;;;;;;;6288927;22;20020;-91
2021/01/26 13:47:23;;;;;;;2.67;1.23;;;;;;;;;;6285066;22;20024;-90
2021/01/26 13:49:56;;;;;;;4.45;1.60;;;;;;;;;;6285533;22;20047;-90
2021/01/26 13:52:26;;;;;;;4.80;2.20;;;;;;;;;;6286933;22;20522;-90
2021/01/26 13:55:07;;;;;;;3.75;2.38;;;;;;;;;;6285829;22;20023;-91
2021/01/26 13:57:50;;;;;;;3.92;2.65;;;;;;;;;;6283958;22;20088;-90
2021/01/26 14:00:34;;;;;;;6.68;3.63;;;;;;;;;;6280962;22;20071;-90
2021/01/26 14:03:19;;;;;;;7.82;3.60;;;;;;;;;;6281192;22;20032;-90
2021/01/26 14:05:50;;;;;;;8.48;4.55;;;;;;;;;;6288017;22;20201;-90
2021/01/26 14:08:32;;;;;;;8.63;4.15;;;;;;;;;;6285536;22;20024;-92
2021/01/26 14:11:01;;;;;;;10.02;5.35;;;;;;;;;;6286259;22;20024;-90
2021/01/26 14:13:41;;;;;;;13.73;5.43;;;;;;;;;;6285616;22;20016;-90
2021/01/26 14:16:20;;;;;;;12.93;6.25;;;;;;;;;;6282483;22;20141;-89
2021/01/26 14:18:49;;;;;;;9.98;6.07;;;;;;;;;;6282833;22;20024;-88
2021/01/26 14:22:00;;;;;;;10.98;5.63;;;;;;;;;;6285170;22;20126;-90
2021/01/26 14:24:32;;;;;;;8.75;5.32;;;;;;;;;;6277157;22;20038;-89
2021/01/26 14:27:10;;;;;;;8.35;5.40;;;;;;;;;;6289955;22;20046;-90
2021/01/26 14:29:45;;;;;;;6.43;4.88;;;;;;;;;;6292504;22;20047;-90
2021/01/26 14:32:17;;;;;;;10.10;4.40;;;;;;;;;;6283759;22;20031;-90
2021/01/26 14:34:45;;;;;;;5.93;3.97;;;;;;;;;;6282497;22;20019;-90
2021/01/26 14:37:43;;;;;;;10.43;4.45;;;;;;;;;;6286853;22;20099;-90
2021/01/26 14:40:10;;;;;;;12.80;6.38;;;;;;;;;;6278367;22;20095;-86
2021/01/26 14:42:37;;;;;;;11.90;4.65;;;;;;;;;;6278348;22;20034;-85
2021/01/26 14:45:03;;;;;;;7.40;3.53;;;;;;;;;;6281683;22;20050;-85
2021/01/26 14:47:30;;;;;;;12.10;4.55;;;;;;;;;;6279784;22;20038;-85
2021/01/26 14:49:56;;;;;;;23.15;7.65;;;;;;;;;;6277668;22;20035;-85
2021/01/26 14:52:24;;;;;;;24.27;11.45;;;;;;;;;;6278321;22;20311;-86
2021/01/26 14:54:53;;;;;;;106.65;44.45;;;;;;;;;;6276987;22;20324;-84
2021/01/26 14:57:19;;;;;;;43.50;19.55;;;;;;;;;;6280626;22;20024;-85
2021/01/26 14:59:46;;;;;;;26.27;14.75;;;;;;;;;;6282400;22;20050;-85
2021/01/26 15:02:36;;;;;;;21.92;11.40;;;;;;;;;;6283328;22;20024;-85
2021/01/26 15:05:06;;;;;;;16.02;8.40;;;;;;;;;;6282764;22;20474;-87
2021/01/26 15:07:38;;;;;;;14.13;7.30;;;;;;;;;;6291282;22;20012;-86
2021/01/26 15:10:29;;;;;;;12.55;6.50;;;;;;;;;;6296086;22;20067;-86
2021/01/26 16:18:07;;;;;;;;;;;;;;;;;;;;;
2021/01/26 16:20:45;;;;;;;6.45;3.65;;;;;;;;;;6177677;23;20046;-90
2021/01/26 16:23:25;;;;;;;12.43;5.85;;;;;;;;;;6194224;23;20039;-89
2021/01/26 16:25:58;;;;;;;6.38;3.80;;;;;;;;;;6196979;23;20111;-90
2021/01/26 16:28:25;;;;;;;9.80;3.97;;;;;;;;;;6196722;23;20084;-90
2021/01/26 16:30:56;;;;;;;5.75;3.83;;;;;;;;;;6197134;23;20024;-89
2021/01/26 16:33:24;;;;;;;4.82;3.67;;;;;;;;;;6197165;23;20025;-90
2021/01/26 16:35:55;;;;;;;10.25;3.67;;;;;;;;;;6202500;23;20029;-89
2021/01/26 16:38:22;;;;;;;6.10;3.33;;;;;;;;;;6197643;23;20382;-90
2021/01/26 16:41:03;;;;;;;6.22;2.70;;;;;;;;;;6199864;23;20020;-89
2021/01/26 16:43:34;;;;;;;8.68;3.13;;;;;;;;;;6200461;23;20034;-90
2021/01/26 16:46:03;;;;;;;5.07;2.67;;;;;;;;;;6200374;23;20129;-90
2021/01/26 16:48:37;;;;;;;7.78;2.63;;;;;;;;;;6177670;23;20031;-89
2021/01/26 16:51:10;;;;;;;3.95;2.72;;;;;;;;;;6221931;23;20024;-90
2021/01/26 16:53:47;;;;;;;8.02;2.80;;;;;;;;;;6203693;23;20024;-91
2021/01/26 16:56:19;;;;;;;5.43;2.78;;;;;;;;;;6229209;22;20012;-90
2021/01/26 17:12:35;;;;;;;11.23;5.70;;;;;;;;;;6248462;23;20015;-88
2021/01/26 17:16:01;;;;;;;5.35;1.30;;;;;;;;;;6223953;23;20027;-88
2021/01/26 17:18:42;;;;;;;2.90;0.82;;;;;;;;;;6247861;23;20041;-88
2021/01/26 17:21:09;;;;;;;0.60;0.55;;;;;;;;;;6231495;22;20039;-88
2021/01/26 17:23:38;;;;;;;0.88;0.60;;;;;;;;;;6235989;22;20191;-87
2021/01/26 17:26:16;;;;;;;5.55;1.00;;;;;;;;;;6227465;23;20086;-87
2021/01/26 17:28:42;;;;;;;1.73;1.02;;;;;;;;;;6221780;23;20024;-87
2021/01/26 17:31:09;;;;;;;3.78;1.35;;;;;;;;;;6224095;23;20079;-87
2021/01/26 17:33:36;;;;;;;3.35;1.45;;;;;;;;;;6218855;23;20028;-87
2021/01/26 17:36:09;;;;;;;3.17;1.40;;;;;;;;;;6256191;23;20024;-87
2021/01/26 17:38:36;;;;;;;4.80;0.95;;;;;;;;;;6230488;23;20052;-87
2021/01/26 17:41:07;;;;;;;2.47;1.50;;;;;;;;;;6256121;23;20024;-87
2021/01/26 17:43:39;;;;;;;3.55;1.50;;;;;;;;;;6223322;23;20345;-86
2021/01/26 17:46:07;;;;;;;4.50;1.20;;;;;;;;;;6234568;22;20062;-87
2021/01/26 17:49:10;;;;;;;2.83;1.30;;;;;;;;;;6238762;23;20024;-87
2021/01/26 17:51:44;;;;;;;4.22;2.33;;;;;;;;;;6261148;22;20016;-86
2021/01/26 17:54:15;;;;;;;2.60;1.40;;;;;;;;;;6226234;23;20012;-87
2021/01/26 17:56:46;;;;;;;2.80;1.48;;;;;;;;;;6227289;23;20024;-88
2021/01/26 17:59:16;;;;;;;3.95;2.00;;;;;;;;;;6224774;23;20212;-86
2021/01/26 18:01:44;;;;;;;2.30;1.25;;;;;;;;;;6227050;23;20028;-89
2021/01/26 18:04:11;;;;;;;2.35;1.50;;;;;;;;;;6223104;23;20028;-87
2021/01/26 18:06:38;;;;;;;8.00;1.73;;;;;;;;;;6223393;23;20039;-87
2021/01/26 18:09:04;;;;;;;7.75;3.00;;;;;;;;;;6249545;23;20251;-87
2021/01/26 18:11:32;;;;;;;4.95;2.38;;;;;;;;;;6222896;23;20035;-87
2021/01/26 18:13:59;;;;;;;4.60;2.63;;;;;;;;;;6220394;23;20043;-87
2021/01/26 18:16:26;;;;;;;8.25;2.30;;;;;;;;;;6247702;23;20024;-86
2021/01/26 18:18:58;;;;;;;4.13;2.40;;;;;;;;;;6252514;23;20035;-88
2021/01/26 18:21:24;;;;;;;3.40;1.85;;;;;;;;;;6249310;23;20275;-87
2021/01/26 18:23:51;;;;;;;2.55;1.90;;;;;;;;;;6227009;23;20216;-88
2021/01/26 18:26:18;;;;;;;6.22;1.67;;;;;;;;;;6225953;23;20060;-87
2021/01/26 18:28:44;;;;;;;3.03;2.00;;;;;;;;;;6250108;23;20148;-87
2021/01/26 18:31:10;;;;;;;3.28;2.10;;;;;;;;;;6250734;23;20024;-88
2021/01/26 18:33:37;;;;;;;4.57;2.47;;;;;;;;;;6222086;23;20468;-87
2021/01/26 18:36:09;;;;;;;5.90;2.60;;;;;;;;;;6233669;22;20016;-87
2021/01/26 18:38:38;;;;;;;4.03;2.42;;;;;;;;;;6240283;22;20050;-86
2021/01/26 18:41:06;;;;;;;3.40;2.33;;;;;;;;;;6234768;23;20016;-86
2021/01/26 18:43:32;;;;;;;4.20;2.70;;;;;;;;;;6224921;23;20078;-87
2021/01/26 18:45:59;;;;;;;3.95;2.92;;;;;;;;;;6222157;23;20028;-87
2021/01/26 18:48:27;;;;;;;4.70;3.08;;;;;;;;;;6230570;22;20225;-87
2021/01/26 18:50:53;;;;;;;10.15;4.28;;;;;;;;;;6264629;22;20019;-88
2021/01/26 18:53:21;;;;;;;12.07;7.07;;;;;;;;;;6229464;22;20028;-88
2021/01/26 18:55:48;;;;;;;23.05;16.92;;;;;;;;;;6224286;23;20038;-86
2021/01/26 18:58:20;;;;;;;11.90;5.43;;;;;;;;;;6226282;23;20186;-88
2021/01/26 19:00:51;;;;;;;10.50;6.05;;;;;;;;;;6224652;23;20035;-87